sensor_id;sensor_type;location;lat;lon;timestamp;pressure;altitude;pressure_sealevel;temperature;humidity
62333;BME280;48624;49.812;8.562;2023-07-13T00:00:28;100496.97;;;20.87;47.80
62333;BME280;48624;49.812;8.562;2023-07-13T00:02:53;100499.66;;;20.87;47.93
62333;BME280;48624;49.812;8.562;2023-07-13T00:05:23;100499.16;;;20.84;47.73
62333;BME280;48624;49.812;8.562;2023-07-13T00:07:49;100507.38;;;20.90;47.60
62333;BME280;48624;49.812;8.562;2023-07-13T00:10:15;100502.13;;;20.97;47.48
62333;BME280;48624;49.812;8.562;2023-07-13T00:12:41;100510.22;;;21.05;46.83
62333;BME280;48624;49.812;8.562;2023-07-13T00:15:13;100506.34;;;21.08;47.03
62333;BME280;48624;49.812;8.562;2023-07-13T00:17:41;100502.59;;;21.17;46.77
62333;BME280;48624;49.812;8.562;2023-07-13T00:20:07;100507.63;;;21.20;46.90
62333;BME280;48624;49.812;8.562;2023-07-13T00:22:33;100503.59;;;21.25;46.73
62333;BME280;48624;49.812;8.562;2023-07-13T00:24:59;100504.41;;;21.25;46.27
62333;BME280;48624;49.812;8.562;2023-07-13T00:27:24;100503.94;;;21.21;46.17
62333;BME280;48624;49.812;8.562;2023-07-13T00:29:54;100509.00;;;21.25;46.21
62333;BME280;48624;49.812;8.562;2023-07-13T00:32:20;100505.81;;;21.13;46.66
62333;BME280;48624;49.812;8.562;2023-07-13T00:34:45;100513.03;;;21.12;46.94
62333;BME280;48624;49.812;8.562;2023-07-13T00:37:11;100512.91;;;20.97;46.90
62333;BME280;48624;49.812;8.562;2023-07-13T00:39:36;100517.66;;;20.87;47.37
62333;BME280;48624;49.812;8.562;2023-07-13T00:42:03;100517.13;;;20.83;47.72
62333;BME280;48624;49.812;8.562;2023-07-13T00:44:28;100515.59;;;20.72;48.56
62333;BME280;48624;49.812;8.562;2023-07-13T00:46:54;100515.44;;;20.57;48.77
62333;BME280;48624;49.812;8.562;2023-07-13T00:49:23;100523.88;;;20.54;48.67
62333;BME280;48624;49.812;8.562;2023-07-13T00:51:51;100514.78;;;20.47;48.99
62333;BME280;48624;49.812;8.562;2023-07-13T00:54:41;100517.13;;;20.42;49.11
62333;BME280;48624;49.812;8.562;2023-07-13T00:57:07;100516.78;;;20.28;49.63
62333;BME280;48624;49.812;8.562;2023-07-13T00:59:35;100513.38;;;20.09;51.08
62333;BME280;48624;49.812;8.562;2023-07-13T01:02:02;100515.78;;;20.13;50.49
62333;BME280;48624;49.812;8.562;2023-07-13T01:04:28;100514.50;;;19.90;51.01
62333;BME280;48624;49.812;8.562;2023-07-13T01:06:53;100514.63;;;19.80;51.24
62333;BME280;48624;49.812;8.562;2023-07-13T01:09:19;100512.44;;;19.76;50.98
62333;BME280;48624;49.812;8.562;2023-07-13T01:11:45;100518.28;;;19.63;51.58
62333;BME280;48624;49.812;8.562;2023-07-13T01:14:11;100518.28;;;19.54;51.67
62333;BME280;48624;49.812;8.562;2023-07-13T01:16:37;100512.72;;;19.56;51.82
62333;BME280;48624;49.812;8.562;2023-07-13T01:19:13;100512.19;;;19.52;52.54
62333;BME280;48624;49.812;8.562;2023-07-13T01:21:50;100516.56;;;19.45;53.41
62333;BME280;48624;49.812;8.562;2023-07-13T01:24:15;100526.44;;;19.45;53.32
62333;BME280;48624;49.812;8.562;2023-07-13T01:26:40;100518.88;;;19.40;53.93
62333;BME280;48624;49.812;8.562;2023-07-13T01:29:06;100515.31;;;19.39;53.92
62333;BME280;48624;49.812;8.562;2023-07-13T01:31:32;100517.81;;;19.33;54.92
62333;BME280;48624;49.812;8.562;2023-07-13T01:33:58;100519.47;;;19.25;55.10
62333;BME280;48624;49.812;8.562;2023-07-13T01:36:23;100519.16;;;19.29;55.22
62333;BME280;48624;49.812;8.562;2023-07-13T01:38:48;100513.72;;;19.20;55.58
62333;BME280;48624;49.812;8.562;2023-07-13T01:41:14;100517.75;;;19.16;55.36
62333;BME280;48624;49.812;8.562;2023-07-13T01:43:39;100522.41;;;19.14;55.59
62333;BME280;48624;49.812;8.562;2023-07-13T01:46:04;100527.78;;;19.14;55.82
62333;BME280;48624;49.812;8.562;2023-07-13T01:48:30;100525.75;;;19.08;55.84
62333;BME280;48624;49.812;8.562;2023-07-13T01:50:55;100526.66;;;18.98;56.18
62333;BME280;48624;49.812;8.562;2023-07-13T01:53:20;100524.00;;;18.80;56.77
62333;BME280;48624;49.812;8.562;2023-07-13T01:55:46;100525.56;;;18.83;56.05
62333;BME280;48624;49.812;8.562;2023-07-13T01:58:11;100531.06;;;18.81;55.62
62333;BME280;48624;49.812;8.562;2023-07-13T02:00:36;100537.13;;;18.83;55.14
62333;BME280;48624;49.812;8.562;2023-07-13T02:03:01;100537.59;;;18.79;55.45
62333;BME280;48624;49.812;8.562;2023-07-13T02:05:27;100537.59;;;18.79;55.37
62333;BME280;48624;49.812;8.562;2023-07-13T02:07:52;100534.06;;;18.78;55.36
62333;BME280;48624;49.812;8.562;2023-07-13T02:10:18;100542.59;;;18.74;55.46
62333;BME280;48624;49.812;8.562;2023-07-13T02:12:43;100542.91;;;18.70;55.43
62333;BME280;48624;49.812;8.562;2023-07-13T02:15:09;100545.34;;;18.64;55.76
62333;BME280;48624;49.812;8.562;2023-07-13T02:17:35;100545.91;;;18.49;56.65
62333;BME280;48624;49.812;8.562;2023-07-13T02:20:02;100551.41;;;18.48;56.64
62333;BME280;48624;49.812;8.562;2023-07-13T02:22:28;100555.75;;;18.40;56.70
62333;BME280;48624;49.812;8.562;2023-07-13T02:24:53;100562.53;;;18.16;58.52
62333;BME280;48624;49.812;8.562;2023-07-13T02:27:19;100556.94;;;18.10;59.22
62333;BME280;48624;49.812;8.562;2023-07-13T02:29:44;100556.38;;;18.06;59.59
62333;BME280;48624;49.812;8.562;2023-07-13T02:32:10;100559.00;;;17.88;60.47
62333;BME280;48624;49.812;8.562;2023-07-13T02:34:35;100572.00;;;17.83;60.95
62333;BME280;48624;49.812;8.562;2023-07-13T02:37:00;100562.94;;;17.66;61.95
62333;BME280;48624;49.812;8.562;2023-07-13T02:39:26;100568.53;;;17.34;62.43
62333;BME280;48624;49.812;8.562;2023-07-13T02:41:51;100567.50;;;17.45;61.39
62333;BME280;48624;49.812;8.562;2023-07-13T02:44:16;100574.91;;;17.61;60.34
62333;BME280;48624;49.812;8.562;2023-07-13T02:46:43;100572.78;;;17.65;60.38
62333;BME280;48624;49.812;8.562;2023-07-13T02:49:08;100581.78;;;17.74;60.30
62333;BME280;48624;49.812;8.562;2023-07-13T02:51:34;100572.75;;;17.75;59.91
62333;BME280;48624;49.812;8.562;2023-07-13T02:54:01;100568.78;;;17.79;59.70
62333;BME280;48624;49.812;8.562;2023-07-13T02:56:28;100572.66;;;17.67;60.37
62333;BME280;48624;49.812;8.562;2023-07-13T02:58:54;100573.47;;;17.67;59.71
62333;BME280;48624;49.812;8.562;2023-07-13T03:01:21;100564.31;;;17.70;59.47
62333;BME280;48624;49.812;8.562;2023-07-13T03:03:47;100568.56;;;17.63;59.70
62333;BME280;48624;49.812;8.562;2023-07-13T03:06:13;100574.38;;;17.58;59.99
62333;BME280;48624;49.812;8.562;2023-07-13T03:08:39;100563.66;;;17.58;60.09
62333;BME280;48624;49.812;8.562;2023-07-13T03:11:08;100571.13;;;17.54;60.54
62333;BME280;48624;49.812;8.562;2023-07-13T03:13:34;100575.66;;;17.54;60.32
62333;BME280;48624;49.812;8.562;2023-07-13T03:16:00;100568.63;;;17.53;60.68
62333;BME280;48624;49.812;8.562;2023-07-13T03:18:27;100574.25;;;17.50;61.09
62333;BME280;48624;49.812;8.562;2023-07-13T03:20:52;100573.13;;;17.52;60.92
62333;BME280;48624;49.812;8.562;2023-07-13T03:23:18;100585.56;;;17.43;61.80
62333;BME280;48624;49.812;8.562;2023-07-13T03:25:44;100586.44;;;17.34;62.50
62333;BME280;48624;49.812;8.562;2023-07-13T03:28:10;100584.16;;;17.39;62.36
62333;BME280;48624;49.812;8.562;2023-07-13T03:30:36;100585.84;;;17.40;62.12
62333;BME280;48624;49.812;8.562;2023-07-13T03:33:01;100596.28;;;17.33;62.73
62333;BME280;48624;49.812;8.562;2023-07-13T03:35:26;100593.22;;;17.28;63.36
62333;BME280;48624;49.812;8.562;2023-07-13T03:37:52;100583.22;;;17.20;63.37
62333;BME280;48624;49.812;8.562;2023-07-13T03:40:17;100592.69;;;17.15;63.88
62333;BME280;48624;49.812;8.562;2023-07-13T03:42:42;100597.06;;;17.06;64.43
62333;BME280;48624;49.812;8.562;2023-07-13T03:45:08;100597.75;;;16.98;64.55
62333;BME280;48624;49.812;8.562;2023-07-13T03:47:33;100584.66;;;16.95;64.65
62333;BME280;48624;49.812;8.562;2023-07-13T03:49:58;100592.41;;;16.88;64.97
62333;BME280;48624;49.812;8.562;2023-07-13T03:52:24;100591.03;;;16.84;65.32
62333;BME280;48624;49.812;8.562;2023-07-13T03:54:49;100588.03;;;16.77;65.69
62333;BME280;48624;49.812;8.562;2023-07-13T03:57:15;100593.25;;;16.79;65.86
62333;BME280;48624;49.812;8.562;2023-07-13T03:59:40;100593.00;;;16.72;66.01
62333;BME280;48624;49.812;8.562;2023-07-13T04:02:05;100587.78;;;16.71;65.94
62333;BME280;48624;49.812;8.562;2023-07-13T04:04:31;100592.41;;;16.69;66.22
62333;BME280;48624;49.812;8.562;2023-07-13T04:06:57;100602.25;;;16.68;66.43
62333;BME280;48624;49.812;8.562;2023-07-13T04:09:24;100593.25;;;16.69;66.37
62333;BME280;48624;49.812;8.562;2023-07-13T04:11:49;100587.50;;;16.64;66.74
62333;BME280;48624;49.812;8.562;2023-07-13T04:14:14;100594.41;;;16.67;66.66
62333;BME280;48624;49.812;8.562;2023-07-13T04:16:39;100597.34;;;16.73;66.45
62333;BME280;48624;49.812;8.562;2023-07-13T04:19:05;100599.31;;;16.81;66.27
62333;BME280;48624;49.812;8.562;2023-07-13T04:21:31;100598.75;;;16.77;66.86
62333;BME280;48624;49.812;8.562;2023-07-13T04:23:57;100604.66;;;16.81;66.64
62333;BME280;48624;49.812;8.562;2023-07-13T04:26:22;100608.34;;;16.90;65.98
62333;BME280;48624;49.812;8.562;2023-07-13T04:28:49;100614.53;;;16.81;67.85
62333;BME280;48624;49.812;8.562;2023-07-13T04:31:16;100619.28;;;16.87;67.08
62333;BME280;48624;49.812;8.562;2023-07-13T04:33:41;100618.03;;;16.91;67.17
62333;BME280;48624;49.812;8.562;2023-07-13T04:36:08;100621.97;;;16.97;67.20
62333;BME280;48624;49.812;8.562;2023-07-13T04:38:35;100624.09;;;17.23;66.64
62333;BME280;48624;49.812;8.562;2023-07-13T04:41:02;100614.88;;;17.45;66.15
62333;BME280;48624;49.812;8.562;2023-07-13T04:43:30;100625.00;;;17.61;65.06
62333;BME280;48624;49.812;8.562;2023-07-13T04:45:56;100625.25;;;17.58;65.13
62333;BME280;48624;49.812;8.562;2023-07-13T04:48:21;100625.75;;;17.43;65.81
62333;BME280;48624;49.812;8.562;2023-07-13T04:50:47;100626.88;;;17.41;65.90
62333;BME280;48624;49.812;8.562;2023-07-13T04:53:13;100629.84;;;17.38;65.79
62333;BME280;48624;49.812;8.562;2023-07-13T04:55:39;100635.34;;;17.36;65.49
62333;BME280;48624;49.812;8.562;2023-07-13T04:58:06;100639.81;;;17.45;64.68
62333;BME280;48624;49.812;8.562;2023-07-13T05:00:31;100637.16;;;17.45;65.32
62333;BME280;48624;49.812;8.562;2023-07-13T05:02:58;100633.91;;;17.52;64.61
62333;BME280;48624;49.812;8.562;2023-07-13T05:05:25;100635.25;;;17.66;63.42
62333;BME280;48624;49.812;8.562;2023-07-13T05:07:51;100638.38;;;17.61;63.47
62333;BME280;48624;49.812;8.562;2023-07-13T05:10:17;100633.28;;;17.68;63.01
62333;BME280;48624;49.812;8.562;2023-07-13T05:12:42;100629.59;;;17.79;62.67
62333;BME280;48624;49.812;8.562;2023-07-13T05:15:07;100630.66;;;17.48;62.65
62333;BME280;48624;49.812;8.562;2023-07-13T05:17:33;100636.84;;;17.58;62.74
62333;BME280;48624;49.812;8.562;2023-07-13T05:19:58;100631.03;;;17.63;62.83
62333;BME280;48624;49.812;8.562;2023-07-13T05:22:24;100639.75;;;17.75;62.37
62333;BME280;48624;49.812;8.562;2023-07-13T05:24:49;100639.88;;;17.73;62.55
62333;BME280;48624;49.812;8.562;2023-07-13T05:27:14;100645.81;;;17.67;62.87
62333;BME280;48624;49.812;8.562;2023-07-13T05:29:40;100643.94;;;17.78;62.60
62333;BME280;48624;49.812;8.562;2023-07-13T05:32:06;100636.75;;;17.88;62.25
62333;BME280;48624;49.812;8.562;2023-07-13T05:34:31;100633.91;;;18.17;61.00
62333;BME280;48624;49.812;8.562;2023-07-13T05:36:56;100639.44;;;18.16;61.31
62333;BME280;48624;49.812;8.562;2023-07-13T05:39:22;100641.53;;;18.22;61.13
62333;BME280;48624;49.812;8.562;2023-07-13T05:41:48;100644.16;;;18.32;60.59
62333;BME280;48624;49.812;8.562;2023-07-13T05:44:15;100641.72;;;18.39;60.11
62333;BME280;48624;49.812;8.562;2023-07-13T05:46:40;100651.31;;;18.41;59.31
62333;BME280;48624;49.812;8.562;2023-07-13T05:49:05;100652.31;;;18.58;58.98
62333;BME280;48624;49.812;8.562;2023-07-13T05:51:31;100662.22;;;18.76;58.47
62333;BME280;48624;49.812;8.562;2023-07-13T05:53:56;100658.03;;;18.64;59.04
62333;BME280;48624;49.812;8.562;2023-07-13T05:56:21;100651.53;;;18.66;58.81
62333;BME280;48624;49.812;8.562;2023-07-13T05:58:48;100648.19;;;19.01;57.75
62333;BME280;48624;49.812;8.562;2023-07-13T06:01:14;100657.28;;;19.26;56.61
62333;BME280;48624;49.812;8.562;2023-07-13T06:03:40;100655.91;;;19.22;56.65
62333;BME280;48624;49.812;8.562;2023-07-13T06:06:07;100659.09;;;19.44;56.07
62333;BME280;48624;49.812;8.562;2023-07-13T06:08:33;100664.19;;;19.55;56.25
62333;BME280;48624;49.812;8.562;2023-07-13T06:11:03;100669.69;;;19.72;55.31
62333;BME280;48624;49.812;8.562;2023-07-13T06:13:28;100669.06;;;19.86;54.83
62333;BME280;48624;49.812;8.562;2023-07-13T06:15:54;100665.75;;;19.92;53.78
62333;BME280;48624;49.812;8.562;2023-07-13T06:18:21;100665.63;;;19.94;53.67
62333;BME280;48624;49.812;8.562;2023-07-13T06:20:46;100667.16;;;20.05;53.31
62333;BME280;48624;49.812;8.562;2023-07-13T06:23:11;100674.56;;;20.03;53.26
62333;BME280;48624;49.812;8.562;2023-07-13T06:25:37;100677.31;;;20.19;52.66
62333;BME280;48624;49.812;8.562;2023-07-13T06:28:02;100679.78;;;20.47;51.53
62333;BME280;48624;49.812;8.562;2023-07-13T06:30:27;100683.56;;;20.28;52.81
62333;BME280;48624;49.812;8.562;2023-07-13T06:32:54;100671.69;;;20.47;51.89
62333;BME280;48624;49.812;8.562;2023-07-13T06:35:19;100674.44;;;20.64;51.16
62333;BME280;48624;49.812;8.562;2023-07-13T06:37:44;100683.69;;;20.70;50.37
62333;BME280;48624;49.812;8.562;2023-07-13T06:40:10;100679.34;;;20.85;49.70
62333;BME280;48624;49.812;8.562;2023-07-13T06:42:35;100691.16;;;21.01;48.46
62333;BME280;48624;49.812;8.562;2023-07-13T06:45:01;100687.47;;;21.10;48.28
62333;BME280;48624;49.812;8.562;2023-07-13T06:47:27;100685.94;;;21.16;48.32
62333;BME280;48624;49.812;8.562;2023-07-13T06:49:53;100689.81;;;20.88;48.46
62333;BME280;48624;49.812;8.562;2023-07-13T06:52:18;100691.84;;;21.19;48.88
62333;BME280;48624;49.812;8.562;2023-07-13T06:54:43;100689.31;;;21.43;47.13
62333;BME280;48624;49.812;8.562;2023-07-13T06:57:09;100698.56;;;21.40;47.42
62333;BME280;48624;49.812;8.562;2023-07-13T06:59:34;100703.44;;;21.61;46.81
62333;BME280;48624;49.812;8.562;2023-07-13T07:01:59;100702.22;;;21.89;45.63
62333;BME280;48624;49.812;8.562;2023-07-13T07:04:24;100699.50;;;21.97;45.36
62333;BME280;48624;49.812;8.562;2023-07-13T07:06:50;100697.88;;;21.71;46.40
62333;BME280;48624;49.812;8.562;2023-07-13T07:09:15;100698.16;;;21.93;46.42
62333;BME280;48624;49.812;8.562;2023-07-13T07:11:41;100696.09;;;22.12;45.99
62333;BME280;48624;49.812;8.562;2023-07-13T07:14:08;100701.25;;;22.22;45.50
62333;BME280;48624;49.812;8.562;2023-07-13T07:16:34;100695.25;;;22.43;44.64
62333;BME280;48624;49.812;8.562;2023-07-13T07:19:00;100702.16;;;22.54;44.24
62333;BME280;48624;49.812;8.562;2023-07-13T07:21:25;100711.44;;;22.51;44.71
62333;BME280;48624;49.812;8.562;2023-07-13T07:23:51;100706.41;;;22.40;44.74
62333;BME280;48624;49.812;8.562;2023-07-13T07:26:16;100707.28;;;22.32;44.93
62333;BME280;48624;49.812;8.562;2023-07-13T07:28:42;100708.81;;;22.66;43.86
62333;BME280;48624;49.812;8.562;2023-07-13T07:31:07;100703.44;;;22.66;44.23
62333;BME280;48624;49.812;8.562;2023-07-13T07:33:33;100697.25;;;22.57;44.82
62333;BME280;48624;49.812;8.562;2023-07-13T07:35:59;100702.31;;;22.84;44.25
62333;BME280;48624;49.812;8.562;2023-07-13T07:38:25;100706.31;;;23.11;43.17
62333;BME280;48624;49.812;8.562;2023-07-13T07:40:50;100706.09;;;23.21;43.61
62333;BME280;48624;49.812;8.562;2023-07-13T07:43:15;100704.47;;;23.35;43.18
62333;BME280;48624;49.812;8.562;2023-07-13T07:45:41;100703.06;;;23.39;42.68
62333;BME280;48624;49.812;8.562;2023-07-13T07:48:07;100705.50;;;23.34;43.34
62333;BME280;48624;49.812;8.562;2023-07-13T07:50:33;100714.31;;;23.66;42.83
62333;BME280;48624;49.812;8.562;2023-07-13T07:52:58;100716.84;;;23.83;42.35
62333;BME280;48624;49.812;8.562;2023-07-13T07:55:24;100721.41;;;23.97;41.61
62333;BME280;48624;49.812;8.562;2023-07-13T07:57:52;100718.16;;;24.02;41.16
62333;BME280;48624;49.812;8.562;2023-07-13T08:00:18;100710.22;;;24.01;40.91
62333;BME280;48624;49.812;8.562;2023-07-13T08:02:44;100717.72;;;24.29;40.61
62333;BME280;48624;49.812;8.562;2023-07-13T08:05:09;100719.91;;;24.77;39.24
62333;BME280;48624;49.812;8.562;2023-07-13T08:07:37;100709.31;;;24.23;40.65
62333;BME280;48624;49.812;8.562;2023-07-13T08:10:04;100706.03;;;24.65;38.95
62333;BME280;48624;49.812;8.562;2023-07-13T08:12:30;100712.38;;;24.35;40.49
62333;BME280;48624;49.812;8.562;2023-07-13T08:14:58;100716.84;;;24.43;40.11
62333;BME280;48624;49.812;8.562;2023-07-13T08:17:25;100719.22;;;24.68;39.37
62333;BME280;48624;49.812;8.562;2023-07-13T08:19:50;100721.09;;;24.52;39.52
62333;BME280;48624;49.812;8.562;2023-07-13T08:22:16;100719.28;;;24.75;39.16
62333;BME280;48624;49.812;8.562;2023-07-13T08:24:41;100717.75;;;24.87;38.54
62333;BME280;48624;49.812;8.562;2023-07-13T08:27:13;100712.84;;;24.98;37.97
62333;BME280;48624;49.812;8.562;2023-07-13T08:29:39;100707.13;;;25.07;38.37
62333;BME280;48624;49.812;8.562;2023-07-13T08:32:06;100698.22;;;24.92;38.10
62333;BME280;48624;49.812;8.562;2023-07-13T08:34:34;100702.41;;;24.94;37.98
62333;BME280;48624;49.812;8.562;2023-07-13T08:36:59;100711.44;;;24.80;38.68
62333;BME280;48624;49.812;8.562;2023-07-13T08:39:25;100702.47;;;25.01;38.00
62333;BME280;48624;49.812;8.562;2023-07-13T08:42:02;100700.22;;;25.05;37.36
62333;BME280;48624;49.812;8.562;2023-07-13T08:44:55;100707.78;;;24.88;38.46
62333;BME280;48624;49.812;8.562;2023-07-13T08:47:24;100697.47;;;25.27;38.17
62333;BME280;48624;49.812;8.562;2023-07-13T08:49:50;100692.72;;;25.07;38.63
62333;BME280;48624;49.812;8.562;2023-07-13T08:52:29;100697.06;;;25.80;36.86
62333;BME280;48624;49.812;8.562;2023-07-13T08:55:24;100695.94;;;25.68;37.02
62333;BME280;48624;49.812;8.562;2023-07-13T08:57:53;100700.75;;;25.72;37.04
62333;BME280;48624;49.812;8.562;2023-07-13T09:00:19;100698.22;;;25.99;36.30
62333;BME280;48624;49.812;8.562;2023-07-13T09:02:50;100698.13;;;25.51;37.67
62333;BME280;48624;49.812;8.562;2023-07-13T09:05:31;100693.94;;;25.83;37.05
62333;BME280;48624;49.812;8.562;2023-07-13T09:09:01;100694.25;;;25.67;37.72
62333;BME280;48624;49.812;8.562;2023-07-13T09:14:33;100699.97;;;25.79;36.86
62333;BME280;48624;49.812;8.562;2023-07-13T09:17:04;100694.72;;;26.12;36.38
62333;BME280;48624;49.812;8.562;2023-07-13T09:19:32;100684.03;;;26.04;36.08
62333;BME280;48624;49.812;8.562;2023-07-13T09:21:59;100686.56;;;25.70;36.63
62333;BME280;48624;49.812;8.562;2023-07-13T09:24:41;100687.47;;;25.84;35.47
62333;BME280;48624;49.812;8.562;2023-07-13T09:27:23;100693.44;;;25.66;36.09
62333;BME280;48624;49.812;8.562;2023-07-13T09:32:41;100687.38;;;25.42;36.79
62333;BME280;48624;49.812;8.562;2023-07-13T09:35:12;100689.53;;;25.75;36.33
62333;BME280;48624;49.812;8.562;2023-07-13T09:37:38;100695.22;;;26.23;35.73
62333;BME280;48624;49.812;8.562;2023-07-13T09:40:13;100682.69;;;26.28;34.08
62333;BME280;48624;49.812;8.562;2023-07-13T09:42:41;100691.53;;;26.37;34.14
62333;BME280;48624;49.812;8.562;2023-07-13T09:45:07;100691.09;;;26.34;34.03
62333;BME280;48624;49.812;8.562;2023-07-13T09:47:39;100700.91;;;26.35;33.35
62333;BME280;48624;49.812;8.562;2023-07-13T09:50:14;100691.75;;;26.07;33.97
62333;BME280;48624;49.812;8.562;2023-07-13T09:52:45;100680.69;;;26.51;32.72
62333;BME280;48624;49.812;8.562;2023-07-13T09:55:36;100684.81;;;26.40;32.96
62333;BME280;48624;49.812;8.562;2023-07-13T09:58:19;100701.41;;;26.65;32.40
62333;BME280;48624;49.812;8.562;2023-07-13T10:01:04;100691.09;;;26.40;33.06
62333;BME280;48624;49.812;8.562;2023-07-13T10:03:31;100687.97;;;26.50;32.61
62333;BME280;48624;49.812;8.562;2023-07-13T10:06:16;100687.91;;;26.23;33.56
62333;BME280;48624;49.812;8.562;2023-07-13T10:08:45;100695.16;;;26.71;32.29
62333;BME280;48624;49.812;8.562;2023-07-13T10:11:16;100692.19;;;26.53;32.84
62333;BME280;48624;49.812;8.562;2023-07-13T10:13:52;100683.66;;;26.83;32.69
62333;BME280;48624;49.812;8.562;2023-07-13T10:16:21;100687.72;;;27.21;31.81
62333;BME280;48624;49.812;8.562;2023-07-13T10:18:53;100686.81;;;26.86;32.01
62333;BME280;48624;49.812;8.562;2023-07-13T10:21:22;100691.00;;;26.82;32.63
62333;BME280;48624;49.812;8.562;2023-07-13T10:24:20;100686.19;;;26.78;32.29
62333;BME280;48624;49.812;8.562;2023-07-13T10:26:52;100685.25;;;26.37;33.11
62333;BME280;48624;49.812;8.562;2023-07-13T10:29:20;100688.38;;;26.34;33.23
62333;BME280;48624;49.812;8.562;2023-07-13T10:31:47;100683.25;;;26.17;33.58
62333;BME280;48624;49.812;8.562;2023-07-13T10:34:13;100678.22;;;26.63;32.75
62333;BME280;48624;49.812;8.562;2023-07-13T10:36:44;100682.97;;;26.47;33.35
62333;BME280;48624;49.812;8.562;2023-07-13T10:39:23;100687.28;;;26.90;32.53
62333;BME280;48624;49.812;8.562;2023-07-13T10:41:53;100678.66;;;26.86;33.10
62333;BME280;48624;49.812;8.562;2023-07-13T10:44:28;100669.19;;;26.55;33.05
62333;BME280;48624;49.812;8.562;2023-07-13T10:46:59;100685.41;;;27.18;32.07
62333;BME280;48624;49.812;8.562;2023-07-13T10:49:28;100677.47;;;25.85;34.62
62333;BME280;48624;49.812;8.562;2023-07-13T10:51:54;100683.28;;;27.53;31.38
62333;BME280;48624;49.812;8.562;2023-07-13T10:54:22;100678.50;;;27.28;32.12
62333;BME280;48624;49.812;8.562;2023-07-13T10:57:14;100676.56;;;26.75;33.03
62333;BME280;48624;49.812;8.562;2023-07-13T10:59:42;100679.91;;;26.84;32.66
62333;BME280;48624;49.812;8.562;2023-07-13T11:02:20;100676.19;;;26.98;31.57
62333;BME280;48624;49.812;8.562;2023-07-13T11:04:48;100676.31;;;26.56;32.18
62333;BME280;48624;49.812;8.562;2023-07-13T11:07:21;100676.94;;;26.65;32.12
62333;BME280;48624;49.812;8.562;2023-07-13T11:09:58;100690.84;;;26.97;31.89
62333;BME280;48624;49.812;8.562;2023-07-13T11:22:45;100674.31;;;27.26;32.11
62333;BME280;48624;49.812;8.562;2023-07-13T11:27:51;100670.75;;;27.52;31.23
62333;BME280;48624;49.812;8.562;2023-07-13T11:33:13;100666.78;;;27.28;31.71
62333;BME280;48624;49.812;8.562;2023-07-13T11:35:58;100664.47;;;27.32;31.41
62333;BME280;48624;49.812;8.562;2023-07-13T11:38:42;100672.75;;;27.91;30.78
62333;BME280;48624;49.812;8.562;2023-07-13T11:41:18;100676.16;;;27.79;30.79
62333;BME280;48624;49.812;8.562;2023-07-13T11:43:45;100664.41;;;27.86;30.61
62333;BME280;48624;49.812;8.562;2023-07-13T11:46:15;100658.25;;;28.10;30.51
62333;BME280;48624;49.812;8.562;2023-07-13T11:48:42;100657.88;;;28.46;29.32
62333;BME280;48624;49.812;8.562;2023-07-13T11:51:17;100664.19;;;28.72;28.90
62333;BME280;48624;49.812;8.562;2023-07-13T11:53:46;100668.75;;;28.52;28.85
62333;BME280;48624;49.812;8.562;2023-07-13T11:56:12;100672.66;;;28.18;29.92
62333;BME280;48624;49.812;8.562;2023-07-13T11:58:38;100668.09;;;28.05;30.19
62333;BME280;48624;49.812;8.562;2023-07-13T12:01:04;100668.03;;;28.18;29.79
62333;BME280;48624;49.812;8.562;2023-07-13T12:03:33;100665.75;;;28.15;29.09
62333;BME280;48624;49.812;8.562;2023-07-13T12:06:03;100661.53;;;27.33;29.15
62333;BME280;48624;49.812;8.562;2023-07-13T12:08:31;100669.53;;;28.07;28.42
62333;BME280;48624;49.812;8.562;2023-07-13T12:11:03;100665.56;;;28.10;28.05
62333;BME280;48624;49.812;8.562;2023-07-13T12:13:35;100659.47;;;28.15;28.65
62333;BME280;48624;49.812;8.562;2023-07-13T12:16:01;100667.22;;;28.18;28.70
62333;BME280;48624;49.812;8.562;2023-07-13T12:18:30;100662.34;;;28.33;28.79
62333;BME280;48624;49.812;8.562;2023-07-13T12:20:58;100672.63;;;27.25;29.75
62333;BME280;48624;49.812;8.562;2023-07-13T12:23:36;100666.88;;;27.94;29.72
62333;BME280;48624;49.812;8.562;2023-07-13T12:26:04;100676.16;;;28.38;28.65
62333;BME280;48624;49.812;8.562;2023-07-13T12:28:34;100659.31;;;28.55;28.84
62333;BME280;48624;49.812;8.562;2023-07-13T12:31:03;100663.03;;;28.61;28.31
62333;BME280;48624;49.812;8.562;2023-07-13T12:33:29;100669.38;;;28.80;28.50
62333;BME280;48624;49.812;8.562;2023-07-13T12:35:56;100672.13;;;28.80;29.15
62333;BME280;48624;49.812;8.562;2023-07-13T12:38:24;100678.28;;;28.30;29.33
62333;BME280;48624;49.812;8.562;2023-07-13T12:40:51;100683.28;;;28.39;28.83
62333;BME280;48624;49.812;8.562;2023-07-13T12:43:20;100672.28;;;28.01;29.08
62333;BME280;48624;49.812;8.562;2023-07-13T12:45:57;100678.06;;;27.65;30.26
62333;BME280;48624;49.812;8.562;2023-07-13T12:48:23;100687.69;;;27.68;30.68
62333;BME280;48624;49.812;8.562;2023-07-13T12:50:49;100684.00;;;28.08;29.42
62333;BME280;48624;49.812;8.562;2023-07-13T12:53:19;100677.34;;;27.97;30.04
62333;BME280;48624;49.812;8.562;2023-07-13T12:55:51;100687.16;;;28.05;30.31
62333;BME280;48624;49.812;8.562;2023-07-13T12:58:24;100683.44;;;27.86;30.01
62333;BME280;48624;49.812;8.562;2023-07-13T13:00:51;100686.16;;;27.92;30.47
62333;BME280;48624;49.812;8.562;2023-07-13T13:03:27;100692.69;;;27.78;31.08
62333;BME280;48624;49.812;8.562;2023-07-13T13:06:17;100691.25;;;27.68;30.02
62333;BME280;48624;49.812;8.562;2023-07-13T13:08:47;100693.97;;;27.68;30.19
62333;BME280;48624;49.812;8.562;2023-07-13T13:11:14;100692.72;;;27.71;31.07
62333;BME280;48624;49.812;8.562;2023-07-13T13:13:41;100695.59;;;27.83;30.76
62333;BME280;48624;49.812;8.562;2023-07-13T13:18:52;100693.06;;;27.95;30.78